createdAt,value
2023-05-25T00:00:28.756Z,13.81
2023-05-25T00:03:47.794Z,13.80
2023-05-25T00:07:05.047Z,13.80
2023-05-25T00:10:24.030Z,13.78
2023-05-25T00:13:39.557Z,13.80
2023-05-25T00:16:56.999Z,13.80
2023-05-25T00:20:17.157Z,13.82
2023-05-25T00:23:34.566Z,13.84
2023-05-25T00:26:52.119Z,13.81
2023-05-25T00:30:09.792Z,13.83
2023-05-25T00:33:27.857Z,13.82
2023-05-25T00:36:47.722Z,13.81
2023-05-25T00:40:05.461Z,13.75
2023-05-25T00:43:23.481Z,13.74
2023-05-25T00:46:42.604Z,13.72
2023-05-25T00:50:01.323Z,13.66
2023-05-25T00:53:18.049Z,13.65
2023-05-25T00:56:38.882Z,13.62
2023-05-25T00:59:59.485Z,13.60
2023-05-25T01:03:26.163Z,13.59
2023-05-25T01:06:45.175Z,13.63
2023-05-25T01:10:07.928Z,13.64
2023-05-25T01:13:26.226Z,13.64
2023-05-25T01:16:43.460Z,13.65
2023-05-25T01:20:10.404Z,13.59
2023-05-25T01:23:24.178Z,13.54
2023-05-25T01:26:47.742Z,13.48
2023-05-25T01:30:11.806Z,13.51
2023-05-25T01:33:29.356Z,13.50
2023-05-25T01:36:47.650Z,13.55
2023-05-25T01:40:06.606Z,13.60
2023-05-25T01:43:25.620Z,13.62
2023-05-25T01:46:47.162Z,13.58
2023-05-25T01:50:09.564Z,13.59
2023-05-25T01:53:32.817Z,13.60
2023-05-25T01:56:53.047Z,13.61
2023-05-25T02:00:13.684Z,13.64
2023-05-25T02:03:30.874Z,13.57
2023-05-25T02:06:48.922Z,13.52
2023-05-25T02:10:06.694Z,13.52
2023-05-25T02:13:24.369Z,13.53
2023-05-25T02:16:42.267Z,13.57
2023-05-25T02:19:59.478Z,13.56
2023-05-25T02:23:18.694Z,13.54
2023-05-25T02:26:37.236Z,13.54
2023-05-25T02:29:55.029Z,13.54
2023-05-25T02:33:14.764Z,13.43
2023-05-25T02:36:32.517Z,13.47
2023-05-25T02:39:50.264Z,13.38
2023-05-25T02:43:07.808Z,13.40
2023-05-25T02:46:26.530Z,13.39
2023-05-25T02:49:44.314Z,13.34
2023-05-25T02:53:01.352Z,13.37
2023-05-25T02:56:18.874Z,13.36
2023-05-25T02:59:36.614Z,13.34
2023-05-25T03:02:54.566Z,13.37
2023-05-25T03:06:14.096Z,13.32
2023-05-25T03:09:32.982Z,13.37
2023-05-25T03:12:51.224Z,13.38
2023-05-25T03:16:08.521Z,13.39
2023-05-25T03:19:25.708Z,13.39
2023-05-25T03:22:43.914Z,13.39
2023-05-25T03:26:01.014Z,13.36
2023-05-25T03:29:17.888Z,13.37
2023-05-25T03:32:35.657Z,13.34
2023-05-25T03:35:53.371Z,13.29
2023-05-25T03:39:11.349Z,13.32
2023-05-25T03:42:27.929Z,13.32
2023-05-25T03:45:44.761Z,13.30
2023-05-25T03:49:02.003Z,13.30
2023-05-25T03:52:20.191Z,13.29
2023-05-25T03:55:36.966Z,13.30
2023-05-25T03:58:55.841Z,13.33
2023-05-25T04:02:13.386Z,13.34
2023-05-25T04:05:30.786Z,13.36
2023-05-25T04:08:48.985Z,13.32
2023-05-25T04:12:07.909Z,13.33
2023-05-25T04:15:29.002Z,13.33
2023-05-25T04:18:52.374Z,13.32
2023-05-25T04:22:10.304Z,13.33
2023-05-25T04:25:29.547Z,13.36
2023-05-25T04:28:47.984Z,13.34
2023-05-25T04:32:23.914Z,13.36
2023-05-25T04:35:42.964Z,13.39
2023-05-25T04:39:08.499Z,13.34
2023-05-25T04:42:36.447Z,13.35
2023-05-25T04:46:00.867Z,13.40
2023-05-25T04:49:20.669Z,13.32
2023-05-25T04:52:37.495Z,13.32
2023-05-25T04:55:56.451Z,13.35
2023-05-25T04:59:14.336Z,13.35
2023-05-25T05:02:49.186Z,13.33
2023-05-25T05:06:06.225Z,13.35
2023-05-25T05:09:29.097Z,13.33
2023-05-25T05:12:53.811Z,13.30
2023-05-25T05:16:16.475Z,13.32
2023-05-25T05:19:49.483Z,13.29
2023-05-25T05:23:15.369Z,13.35
2023-05-25T05:26:56.345Z,13.27
2023-05-25T05:30:09.837Z,13.29
2023-05-25T05:33:27.987Z,13.32
2023-05-25T05:36:58.410Z,13.32
2023-05-25T05:40:17.769Z,13.35
2023-05-25T05:43:44.690Z,13.33
2023-05-25T05:47:09.873Z,13.35
2023-05-25T05:50:30.128Z,13.37
2023-05-25T05:53:47.683Z,13.38
2023-05-25T05:57:05.217Z,13.35
2023-05-25T06:00:38.795Z,13.33
2023-05-25T06:04:16.912Z,13.31
2023-05-25T06:07:47.894Z,13.29
2023-05-25T06:11:06.036Z,13.34
2023-05-25T06:14:28.557Z,13.33
2023-05-25T06:17:51.389Z,13.38
2023-05-25T06:21:13.042Z,13.42
2023-05-25T06:24:32.659Z,13.47
2023-05-25T06:27:54.378Z,13.48
2023-05-25T06:31:13.113Z,13.51
2023-05-25T06:34:32.242Z,13.62
2023-05-25T06:37:54.114Z,13.68
2023-05-25T06:41:13.728Z,13.79
2023-05-25T06:44:33.151Z,13.86
2023-05-25T06:48:20.297Z,13.94
2023-05-25T06:51:39.863Z,13.88
2023-05-25T06:54:57.534Z,13.97
2023-05-25T06:58:15.438Z,13.91
2023-05-25T07:01:35.394Z,13.86
2023-05-25T07:05:01.226Z,13.89
2023-05-25T07:08:18.830Z,13.89
2023-05-25T07:11:36.521Z,13.86
2023-05-25T07:14:57.254Z,13.89
2023-05-25T07:18:17.301Z,13.78
2023-05-25T07:21:40.233Z,13.80
2023-05-25T07:24:58.146Z,13.73
2023-05-25T07:28:22.215Z,13.67
2023-05-25T07:31:44.934Z,13.57
2023-05-25T07:35:10.131Z,13.58
2023-05-25T07:38:31.883Z,13.54
2023-05-25T07:41:54.780Z,13.55
2023-05-25T07:45:35.046Z,13.58
2023-05-25T07:48:51.542Z,13.56
2023-05-25T07:52:08.901Z,13.63
2023-05-25T07:55:25.877Z,13.65
2023-05-25T07:58:42.413Z,13.70
2023-05-25T08:01:59.206Z,13.71
2023-05-25T08:05:18.057Z,13.72
2023-05-25T08:08:34.519Z,13.76
2023-05-25T08:11:52.347Z,13.76
2023-05-25T08:15:11.350Z,13.78
2023-05-25T08:18:29.521Z,13.80
2023-05-25T08:21:45.952Z,13.69
2023-05-25T08:25:02.416Z,13.73
2023-05-25T08:28:21.710Z,13.74
2023-05-25T08:31:38.996Z,13.77
2023-05-25T08:34:55.931Z,13.80
2023-05-25T08:38:13.347Z,13.76
2023-05-25T08:41:29.788Z,13.75
2023-05-25T08:44:47.451Z,13.82
2023-05-25T08:48:07.177Z,13.90
2023-05-25T08:51:25.801Z,13.95
2023-05-25T08:54:45.143Z,13.96
2023-05-25T08:58:07.321Z,14.02
2023-05-25T09:01:27.130Z,14.08
2023-05-25T09:04:45.595Z,14.10
2023-05-25T09:08:02.701Z,14.06
2023-05-25T09:11:34.865Z,14.04
2023-05-25T09:14:39.051Z,14.12
2023-05-25T09:17:55.449Z,14.22
2023-05-25T09:21:13.367Z,14.32
2023-05-25T09:24:30.959Z,14.34
2023-05-25T09:27:47.774Z,14.30
2023-05-25T09:31:04.548Z,14.36
2023-05-25T09:34:23.321Z,14.29
2023-05-25T09:37:40.099Z,14.19
2023-05-25T09:40:57.067Z,14.24
2023-05-25T09:44:14.756Z,14.28
2023-05-25T09:47:31.365Z,14.33
2023-05-25T09:50:49.743Z,14.31
2023-05-25T09:54:06.686Z,14.37
2023-05-25T09:57:24.738Z,14.44
2023-05-25T10:00:43.573Z,14.44
2023-05-25T10:04:04.690Z,14.43
2023-05-25T10:07:18.905Z,14.52
2023-05-25T10:10:36.334Z,14.54
2023-05-25T10:13:55.552Z,14.54
2023-05-25T10:17:14.607Z,14.58
2023-05-25T10:20:33.540Z,14.63
2023-05-25T10:23:54.389Z,14.69
2023-05-25T10:27:26.192Z,14.67
2023-05-25T10:30:35.064Z,14.70
2023-05-25T10:33:52.769Z,14.64
2023-05-25T10:37:11.535Z,14.62
2023-05-25T10:40:29.186Z,14.71
2023-05-25T10:43:47.138Z,14.77
2023-05-25T10:47:05.276Z,14.77
2023-05-25T10:50:33.695Z,14.78
2023-05-25T10:53:57.024Z,14.78
2023-05-25T10:57:26.453Z,14.79
2023-05-25T11:00:43.381Z,14.78
2023-05-25T11:04:06.226Z,14.79
2023-05-25T11:07:26.999Z,14.84
2023-05-25T11:11:02.721Z,14.87
2023-05-25T11:14:32.066Z,14.89
2023-05-25T11:18:07.552Z,14.86
2023-05-25T11:21:43.738Z,14.93
2023-05-25T11:25:01.417Z,14.98
2023-05-25T11:28:18.681Z,15.01
2023-05-25T11:31:43.717Z,15.02
2023-05-25T11:35:00.608Z,14.97
2023-05-25T11:38:20.052Z,15.02
2023-05-25T11:41:37.328Z,15.08
2023-05-25T11:44:54.646Z,15.11
2023-05-25T11:48:12.112Z,15.18
2023-05-25T11:51:32.376Z,15.22
2023-05-25T11:54:49.249Z,15.25
2023-05-25T11:58:09.341Z,15.28
2023-05-25T12:01:28.226Z,15.28
2023-05-25T12:04:43.990Z,15.32
2023-05-25T12:08:00.418Z,15.34
2023-05-25T12:11:16.937Z,15.34
2023-05-25T12:14:36.374Z,15.38
2023-05-25T12:17:54.771Z,15.44
2023-05-25T12:21:11.866Z,15.44
2023-05-25T12:24:29.031Z,15.48
2023-05-25T12:27:45.937Z,15.51
2023-05-25T12:31:03.031Z,15.49
2023-05-25T12:34:21.749Z,15.42
2023-05-25T12:37:38.244Z,15.45
2023-05-25T12:40:55.280Z,15.47
2023-05-25T12:44:11.702Z,15.49
2023-05-25T12:47:31.217Z,15.48
2023-05-25T12:51:03.590Z,15.45
2023-05-25T12:54:19.952Z,15.47
2023-05-25T12:57:43.398Z,15.49
2023-05-25T13:01:08.634Z,15.60
2023-05-25T13:04:25.302Z,15.66
2023-05-25T13:07:41.661Z,15.65
2023-05-25T13:10:59.813Z,15.59
2023-05-25T13:14:16.471Z,15.67
2023-05-25T13:17:33.032Z,15.63
2023-05-25T13:20:51.719Z,15.61
2023-05-25T13:24:08.900Z,15.63
2023-05-25T13:27:26.419Z,15.61
2023-05-25T13:30:43.018Z,15.55
2023-05-25T13:34:05.543Z,15.63
2023-05-25T13:37:21.893Z,15.68
2023-05-25T13:40:38.398Z,15.73
2023-05-25T13:43:55.456Z,15.63
2023-05-25T13:47:12.469Z,15.67
2023-05-25T13:50:29.063Z,15.75
2023-05-25T13:53:49.956Z,15.86
2023-05-25T13:57:08.320Z,15.83
2023-05-25T14:00:26.427Z,15.89
2023-05-25T14:03:43.510Z,15.81
2023-05-25T14:07:01.834Z,15.83
2023-05-25T14:10:19.654Z,15.75
2023-05-25T14:13:37.417Z,15.67
2023-05-25T14:16:54.745Z,15.68
2023-05-25T14:20:14.747Z,15.63
2023-05-25T14:23:31.308Z,15.68
2023-05-25T14:26:47.687Z,15.66
2023-05-25T14:30:04.387Z,15.66
2023-05-25T14:33:20.790Z,15.60
2023-05-25T14:36:38.706Z,15.58
2023-05-25T14:39:55.232Z,15.58
2023-05-25T14:43:11.722Z,15.62
2023-05-25T14:46:28.312Z,15.63
2023-05-25T14:49:44.981Z,15.63
2023-05-25T14:53:01.453Z,15.68
2023-05-25T14:56:17.840Z,15.63
2023-05-25T14:59:34.151Z,15.60
2023-05-25T15:02:50.693Z,15.60
2023-05-25T15:06:07.157Z,15.64
2023-05-25T15:09:23.790Z,15.64
2023-05-25T15:12:40.216Z,15.59
2023-05-25T15:15:58.550Z,15.59
2023-05-25T15:19:16.788Z,15.52
2023-05-25T15:22:33.455Z,15.50
2023-05-25T15:25:50.051Z,15.54
2023-05-25T15:29:06.610Z,15.52
2023-05-25T15:32:23.041Z,15.55
2023-05-25T15:35:39.306Z,15.56
2023-05-25T15:38:56.000Z,15.49
2023-05-25T15:42:14.314Z,15.36
2023-05-25T15:45:30.851Z,15.24
2023-05-25T15:48:47.413Z,15.24
2023-05-25T15:52:03.892Z,15.28
2023-05-25T15:55:21.458Z,15.31
2023-05-25T15:58:40.324Z,15.30
2023-05-25T16:01:56.749Z,15.09
2023-05-25T16:05:14.339Z,15.03
2023-05-25T16:08:31.459Z,15.06
2023-05-25T16:11:47.938Z,15.12
2023-05-25T16:15:04.823Z,15.12
2023-05-25T16:18:21.339Z,15.14
2023-05-25T16:21:38.842Z,15.13
2023-05-25T16:24:55.436Z,15.00
2023-05-25T16:28:12.120Z,14.90
2023-05-25T16:31:28.902Z,14.95
2023-05-25T16:34:48.292Z,14.95
2023-05-25T16:38:04.950Z,14.93
2023-05-25T16:41:24.328Z,14.97
2023-05-25T16:44:40.861Z,14.98
2023-05-25T16:47:58.565Z,15.00
2023-05-25T16:51:16.143Z,14.92
2023-05-25T16:54:32.707Z,14.88
2023-05-25T16:57:49.972Z,14.86
2023-05-25T17:01:12.712Z,14.90
2023-05-25T17:04:29.744Z,14.87
2023-05-25T17:07:46.380Z,14.83
2023-05-25T17:11:03.705Z,14.76
2023-05-25T17:14:20.913Z,14.79
2023-05-25T17:17:37.391Z,14.78
2023-05-25T17:20:53.948Z,14.77
2023-05-25T17:24:11.230Z,14.83
2023-05-25T17:27:27.717Z,14.83
2023-05-25T17:30:44.617Z,14.84
2023-05-25T17:34:01.512Z,14.82
2023-05-25T17:37:19.005Z,14.73
2023-05-25T17:40:35.712Z,14.75
2023-05-25T17:43:53.583Z,14.75
2023-05-25T17:47:11.314Z,14.71
2023-05-25T17:50:28.889Z,14.70
2023-05-25T17:53:45.501Z,14.71
2023-05-25T17:57:02.829Z,14.71
2023-05-25T18:00:25.662Z,14.62
2023-05-25T18:03:42.765Z,14.56
2023-05-25T18:06:59.750Z,14.54
2023-05-25T18:10:18.103Z,14.56
2023-05-25T18:13:34.560Z,14.50
2023-05-25T18:16:51.838Z,14.45
2023-05-25T18:20:08.839Z,14.46
2023-05-25T18:26:27.608Z,14.34
2023-05-25T18:29:44.115Z,14.31
2023-05-25T18:33:00.898Z,14.34
2023-05-25T18:36:18.075Z,14.38
2023-05-25T18:39:36.049Z,14.45
2023-05-25T18:42:52.987Z,14.48
2023-05-25T18:46:09.357Z,14.40
2023-05-25T18:49:28.977Z,14.44
2023-05-25T18:52:45.877Z,14.41
2023-05-25T18:56:03.298Z,14.37
2023-05-25T18:59:20.381Z,14.23
2023-05-25T19:02:39.630Z,14.17
2023-05-25T19:05:57.207Z,14.18
2023-05-25T19:09:14.320Z,14.20
2023-05-25T19:12:32.216Z,14.20
2023-05-25T19:15:50.575Z,14.11
2023-05-25T19:19:07.106Z,14.06
2023-05-25T19:22:26.166Z,13.97
2023-05-25T19:25:43.356Z,13.92
2023-05-25T19:29:09.199Z,13.90
2023-05-25T19:32:26.291Z,13.81
2023-05-25T19:35:44.957Z,13.75
2023-05-25T19:39:01.575Z,13.73
2023-05-25T19:42:18.621Z,13.76
2023-05-25T19:45:36.923Z,13.84
2023-05-25T19:48:54.310Z,13.86
2023-05-25T19:52:11.916Z,13.84
2023-05-25T19:55:28.934Z,13.87
2023-05-25T19:58:46.654Z,13.85
2023-05-25T20:02:04.950Z,13.90
2023-05-25T20:05:22.290Z,13.96
2023-05-25T20:08:41.593Z,13.99
2023-05-25T20:11:58.564Z,14.02
2023-05-25T20:15:17.663Z,14.04
2023-05-25T20:18:35.009Z,14.06
2023-05-25T20:21:52.213Z,14.07
2023-05-25T20:25:09.374Z,14.09
2023-05-25T20:28:26.213Z,14.10
2023-05-25T20:31:43.076Z,14.13
2023-05-25T20:35:00.358Z,14.14
2023-05-25T20:38:18.837Z,14.15
2023-05-25T20:41:36.375Z,14.16
2023-05-25T20:44:53.500Z,14.15
2023-05-25T20:48:11.563Z,14.16
2023-05-25T20:51:30.139Z,14.15
2023-05-25T20:54:47.124Z,14.13
2023-05-25T20:58:03.857Z,14.11
2023-05-25T21:01:21.292Z,14.15
2023-05-25T21:04:37.870Z,14.18
2023-05-25T21:07:55.307Z,14.14
2023-05-25T21:11:12.186Z,14.12
2023-05-25T21:14:28.550Z,14.14
2023-05-25T21:17:46.151Z,14.15
2023-05-25T21:21:03.018Z,14.16
2023-05-25T21:24:19.301Z,14.16
2023-05-25T21:27:35.789Z,14.17
2023-05-25T21:30:52.486Z,14.16
2023-05-25T21:34:08.809Z,14.12
2023-05-25T21:37:25.962Z,14.09
2023-05-25T21:40:42.541Z,14.09
2023-05-25T21:43:59.180Z,14.06
2023-05-25T21:47:16.640Z,14.05
2023-05-25T21:50:33.201Z,14.05
2023-05-25T21:54:14.841Z,13.98
2023-05-25T21:58:09.207Z,13.94
2023-05-25T22:01:32.354Z,13.92
2023-05-25T22:04:49.121Z,13.92
2023-05-25T22:08:05.489Z,13.90
2023-05-25T22:11:22.962Z,13.86
2023-05-25T22:14:39.249Z,13.84
2023-05-25T22:17:56.435Z,13.83
2023-05-25T22:21:13.685Z,13.79
2023-05-25T22:24:30.972Z,13.79
2023-05-25T22:27:47.298Z,13.76
2023-05-25T22:31:04.689Z,13.78
2023-05-25T22:34:21.835Z,13.82
2023-05-25T22:37:38.282Z,13.81
2023-05-25T22:40:54.588Z,13.78
2023-05-25T22:44:10.968Z,13.79
2023-05-25T22:47:27.849Z,13.79
2023-05-25T22:50:44.520Z,13.79
2023-05-25T22:54:01.756Z,13.77
2023-05-25T22:57:18.223Z,13.70
2023-05-25T23:00:36.149Z,13.70
2023-05-25T23:03:53.081Z,13.66
2023-05-25T23:07:09.679Z,13.54
2023-05-25T23:10:26.162Z,13.56
2023-05-25T23:13:43.771Z,13.54
2023-05-25T23:17:00.827Z,13.57
2023-05-25T23:20:21.201Z,13.59
2023-05-25T23:23:37.805Z,13.64
2023-05-25T23:26:54.316Z,13.68
2023-05-25T23:30:11.875Z,13.68
2023-05-25T23:33:30.114Z,13.70
2023-05-25T23:36:47.060Z,13.71
2023-05-25T23:41:09.311Z,13.74
2023-05-25T23:44:49.627Z,13.68
2023-05-25T23:48:06.251Z,13.71
2023-05-25T23:51:23.158Z,13.73
2023-05-25T23:54:40.052Z,13.75
2023-05-25T23:57:57.012Z,13.76
